Wednesday, February 21, 2018, 8:11 PM EST
Back to Local

KUNV, State College, University Park Airport

Location: State College, PA, United States Lat: 40.85
Local Time: 8:11 PM EST ( 1:11 GMT) Lon: -77.85
Time Zone: US/Eastern Elev: 1240 ft

Show me the last for .
Show Decoded

2018-02-21 19:53 METAR KUNV 220053Z 31008KT 10SM BKN013 12/09 A3042 =
2018-02-21 19:30 METAR KUNV 220030Z 30008KT 10SM BKN013 OVC018 13/10 A3041 =
2018-02-21 18:53 METAR KUNV 212353Z 30008KT 10SM OVC055 15/11 A3039 =
2018-02-21 17:53 METAR KUNV 212253Z 28005KT 10SM VCSH SCT038 BKN045 BKN050 15/11 A3037 =
2018-02-21 16:53 METAR KUNV 212153Z 28007KT 10SM BKN042 BKN060 OVC085 17/11 A3032 =
2018-02-21 15:53 METAR KUNV 212053Z 27010G20KT 10SM BKN037 BKN060 BKN075 18/11 A3030 =
2018-02-21 14:53 METAR KUNV 211953Z 28011G22KT 10SM SCT055 SCT070 BKN090 22/14 A3025 =
2018-02-21 13:53 METAR KUNV 211853Z 24010G22KT 10SM BKN055 BKN060 BKN085 22/13 A3022 =
2018-02-21 12:53 METAR KUNV 211753Z 21008KT 10SM BKN050 OVC065 22/13 A3022 =
2018-02-21 11:53 METAR KUNV 211653Z 20008KT 10SM OVC048 20/12 A3023 =
2018-02-21 10:53 METAR KUNV 211553Z 20010G18KT 10SM BKN050 20/12 A3024 =
2018-02-21 09:53 METAR KUNV 211453Z 21008G15KT 10SM SCT080 18/12 A3024 =
2018-02-21 08:53 METAR KUNV 211353Z 22008KT 10SM SCT075 16/12 A3025 =
2018-02-21 07:53 METAR KUNV 211253Z 27006KT 10SM BKN080 13/11 A3024 =
2018-02-21 06:53 METAR KUNV 211153Z 28005KT 10SM SCT100 13/11 A3023 =
2018-02-21 05:53 METAR KUNV 211053Z COR 25006KT 10SM SKC 13/11 A3023 =
2018-02-21 05:35 METAR KUNV 211035Z AUTO 26007KT 10SM CLR 13/11 A3023 RMK AO2 T01250105 =
2018-02-21 05:15 METAR KUNV 211015Z AUTO 25006KT 10SM CLR 13/11 A3023 RMK AO2 T01270107 =
2018-02-21 04:55 METAR KUNV 210955Z AUTO 25005KT 10SM CLR 13/11 A3023 RMK AO2 T01270109 =
2018-02-21 04:35 METAR KUNV 210935Z AUTO 26006KT 10SM CLR 13/11 A3023 RMK AO2 T01300110 =
2018-02-21 04:15 METAR KUNV 210915Z AUTO 25007KT 10SM CLR 13/11 A3023 RMK AO2 T01280105 =
2018-02-21 03:55 METAR KUNV 210855Z AUTO 23009KT 10SM CLR 13/10 A3023 RMK AO2 T01280103 =
2018-02-21 03:35 METAR KUNV 210835Z AUTO 23006KT 10SM CLR 13/11 A3023 RMK AO2 T01310109 =
2018-02-21 03:15 METAR KUNV 210815Z AUTO 22004KT 10SM CLR 14/11 A3023 RMK AO2 T01410113 =
2018-02-21 02:55 METAR KUNV 210755Z AUTO 25004KT 10SM CLR 14/12 A3023 RMK AO2 T01390115 =
2018-02-21 02:35 METAR KUNV 210735Z AUTO 29003KT 10SM CLR 14/12 A3024 RMK AO2 T01360115 =
2018-02-21 02:15 METAR KUNV 210715Z AUTO 25003KT 10SM CLR 13/11 A3024 RMK AO2 T01320112 =
2018-02-21 01:55 METAR KUNV 210655Z AUTO 00000KT 10SM CLR 15/12 A3025 RMK AO2 T01460115 =
2018-02-21 01:35 METAR KUNV 210635Z AUTO 00000KT 10SM CLR 14/11 A3024 RMK AO2 T01440112 =
2018-02-21 01:15 METAR KUNV 210615Z AUTO 22005KT 10SM CLR 15/11 A3025 RMK AO2 T01460112 =
2018-02-21 00:55 METAR KUNV 210555Z AUTO 22005KT 10SM CLR 15/12 A3025 RMK AO2 T01510116 10168
                 20131 =
2018-02-21 00:35 METAR KUNV 210535Z AUTO 22006KT 10SM CLR 15/12 A3025 RMK AO2 T01510115 =
2018-02-21 00:15 METAR KUNV 210515Z AUTO 22006KT 10SM CLR 15/11 A3025 RMK AO2 T01490114 =
2018-02-20 23:55 METAR KUNV 210455Z AUTO 21003KT 10SM CLR 15/11 A3024 RMK AO2 T01500114 =
2018-02-20 23:35 METAR KUNV 210435Z AUTO 22004KT 10SM CLR 16/12 A3024 RMK AO2 T01590118 =
2018-02-20 23:15 METAR KUNV 210415Z AUTO 23004KT 10SM CLR 15/12 A3024 RMK AO2 T01530115 =
2018-02-20 22:55 METAR KUNV 210355Z AUTO 23004KT 10SM CLR 15/11 A3024 RMK AO2 T01530113 402250002
                 =
2018-02-20 22:35 METAR KUNV 210335Z AUTO 23005KT 10SM CLR 16/11 A3024 RMK AO2 T01590114 =
2018-02-20 22:15 METAR KUNV 210315Z AUTO 24006KT 10SM CLR 17/12 A3024 RMK AO2 T01650116 =
2018-02-20 21:53 METAR KUNV 210253Z 00000KT 10SM SKC 15/11 A3024 =
2018-02-20 20:53 METAR KUNV 210153Z 00000KT 10SM SKC 14/10 A3024 =

Support USWX by starting your Amazon purchase here.